Helemano Mltry Reservation, Hawaii
Current Conditions -  °F | °C
As of 8:58 AM on Friday 24 Oct 2014 (Local Time) from PHHI Reporting Station
Scattered Clouds Scattered Clouds  
Wind Chill: 77°   Ceiling: Unl
Heat Index: 79°   Visibility: 10mi
Dew Point: 70°   Wind: 5mph
Humidity: 77%   Direction: NA
Pressure: 30.07"   Gusts: NA
Location:  21.4794°N, 158.1°W
Report Text: PHHI 241858Z AUTO VRB04KT 10SM SCT022 25/21 A3007 RMK AO2 SLP172 T02510209 $
Loading
Personal Weather Stations






























Interactive Weather Map
Tropical Storm Tracking
New forecast layout! Learn more

10-Day Weather Forecast

Advertisements
Track Severe Weather on mobile